Moleson — HBLE — position and weather

sailwx.info

Track history (hours):
 
Tides and Currents Weather Stations Pressure Air Temp Water Temp Dewpoint Dewpoint Depression Visibility Wind Speed Wind Dir Waves Ship Positions

Moleson

Last reported at 2014-Nov-26 21:25 UTC. Time now 2014-Nov-27 08:14 UTC.
Position N 50°01' W 002°60'.

Length 181 m; draft 9.8 m.

Type: Ship. MMSI: 269039000.

Date/timePositionNaut miles runAvg speedWind from/ knotsBaromVisibWave heightAir tempDewpointWater temp
2014-Nov-26 21:25N 50°01' W 002°60'11612.9
2014-Nov-26 12:23N 50°32' W 000°04'910.3
2014-Nov-26 11:33N 50°33' E 000°09'10 9.8
2014-Nov-26 10:33N 50°35' E 000°24'1110.6
2014-Nov-26 09:33N 50°39' E 000°39'1312.5
2014-Nov-26 08:33N 50°46' E 000°56'1313.5
2014-Nov-26 07:34N 50°55' E 001°12'1313.0
2014-Nov-26 06:33N 51°04' E 001°27'1111.5
2014-Nov-26 05:33N 51°11' E 001°42'1010.2
2014-Nov-26 04:33N 51°19' E 001°51'1010.0
2014-Nov-26 03:33N 51°28' E 001°58'1010.3
2014-Nov-26 02:34N 51°36' E 002°08'1410.9
2014-Nov-26 01:19N 51°46' E 002°24'1512.5
2014-Nov-26 00:06N 51°57' E 002°40'913.2
2014-Nov-25 23:24N 52°04' E 002°50'1313.5
2014-Nov-25 22:24N 52°14' E 003°04'1213.3
2014-Nov-25 21:28N 52°24' E 003°16'1512.6
2014-Nov-25 20:18N 52°36' E 003°30'3311.3
2014-Nov-25 17:22N 53°01' E 004°06'911.2
2014-Nov-25 16:32N 53°08' E 004°17'1211.8
2014-Nov-25 15:33N 53°17' E 004°28'1212.5
2014-Nov-25 14:33N 53°29' E 004°35'3013.0
2014-Nov-25 12:15N 53°58' E 004°48'912.9
2014-Nov-25 11:33N 54°07' E 004°50'1312.4
2014-Nov-25 10:30N 54°19' E 004°57'27410.4
2014-Nov-24 08:13N 57°48' E 010°14'711.0
2014-Nov-24 07:33N 57°49' E 010°27'1211.6
2014-Nov-24 06:33N 57°48' E 010°49'1211.8
2014-Nov-24 05:33N 57°40' E 011°05'1312.5
2014-Nov-24 04:33N 57°31' E 011°22'1313.0
2014-Nov-24 03:33N 57°19' E 011°32'16911.2
2014-Nov-23 12:33N 54°31' E 011°30'1212.3
2014-Nov-23 11:34N 54°26' E 011°50'1212.0
2014-Nov-23 10:33N 54°26' E 012°10'1211.4
2014-Nov-23 09:32N 54°37' E 012°18'1111.7
2014-Nov-23 08:33N 54°43' E 012°35'2612.4
2014-Nov-23 06:27N 54°47' E 013°19'4812.2
2014-Nov-23 02:33N 54°42' E 014°41'1212.6
2014-Nov-23 01:33N 54°46' E 015°01'1312.6
2014-Nov-23 00:34N 54°50' E 015°22'1312.5
2014-Nov-22 23:33N 54°54' E 015°42'  
2014-Nov-19 20:07N 55°08' E 019°03'813.1
2014-Nov-19 19:32N 54°60' E 019°02'1313.2
2014-Nov-19 18:33N 54°47' E 019°02'1312.9
2014-Nov-19 17:33N 54°35' E 018°54'1212.5
2014-Nov-19 16:33N 54°26' E 018°39'3 3.1
2014-Nov-19 15:33N 54°23' E 018°40'0 0.5
2014-Nov-19 14:31N 54°23' E 018°40'0 0.0
2014-Nov-19 13:31N 54°23' E 018°40'0 0.0
2014-Nov-19 12:31N 54°23' E 018°40'0 0.0
2014-Nov-19 11:31N 54°23' E 018°40'0 0.0
2014-Nov-19 10:31N 54°23' E 018°40'0 0.0
2014-Nov-19 09:31N 54°23' E 018°40'0 0.0
2014-Nov-19 08:31N 54°23' E 018°40'0 0.0
2014-Nov-19 07:31N 54°23' E 018°40'0 0.0
2014-Nov-19 06:31N 54°23' E 018°40'0 0.0
2014-Nov-19 05:31N 54°23' E 018°40'0 0.0
2014-Nov-19 04:31N 54°23' E 018°40'0 0.0
2014-Nov-19 03:31N 54°23' E 018°40'0 0.0
2014-Nov-19 02:31N 54°23' E 018°40'0 0.0
2014-Nov-19 01:31N 54°23' E 018°40'0 0.0
2014-Nov-19 00:31N 54°23' E 018°40'0 0.0
2014-Nov-18 23:31N 54°23' E 018°40'0 0.0
2014-Nov-18 22:32N 54°23' E 018°40'0 0.0
2014-Nov-18 21:31N 54°23' E 018°40'0 0.0
2014-Nov-18 20:31N 54°23' E 018°40'0 0.0
2014-Nov-18 19:31N 54°23' E 018°40'0 0.0
2014-Nov-18 18:32N 54°23' E 018°40'0 0.0
2014-Nov-18 17:31N 54°23' E 018°40'0 0.0
2014-Nov-18 16:31N 54°23' E 018°40'0 0.0
2014-Nov-18 15:31N 54°23' E 018°40'0 0.0
2014-Nov-18 14:31N 54°23' E 018°40'0 0.0
2014-Nov-18 13:32N 54°23' E 018°40'0 0.0
2014-Nov-18 12:31N 54°23' E 018°40'0 0.0
2014-Nov-18 11:31N 54°23' E 018°40'0 0.0
2014-Nov-18 10:31N 54°23' E 018°40'0 0.0
2014-Nov-18 09:31N 54°23' E 018°40'0 0.0
2014-Nov-18 08:31N 54°23' E 018°40'0 0.0
2014-Nov-18 07:31N 54°23' E 018°40'0 0.0
2014-Nov-18 06:31N 54°23' E 018°40'0 0.0
2014-Nov-18 05:31N 54°23' E 018°40'0 0.0
2014-Nov-18 04:31N 54°23' E 018°40'0 0.0
2014-Nov-18 03:31N 54°23' E 018°40'0 0.0
2014-Nov-18 02:31N 54°23' E 018°40'0 0.0
2014-Nov-18 01:31N 54°23' E 018°40'0 0.0
2014-Nov-18 00:31N 54°23' E 018°40'0 0.0
2014-Nov-17 23:31N 54°23' E 018°40'0 0.0
2014-Nov-17 22:31N 54°23' E 018°40'0 0.0
2014-Nov-17 21:31N 54°23' E 018°40'0 0.0
2014-Nov-17 20:31N 54°23' E 018°40'0 0.0
2014-Nov-17 19:31N 54°23' E 018°40'0 0.0
2014-Nov-17 18:31N 54°23' E 018°40'0 0.0
2014-Nov-17 17:31N 54°23' E 018°40'0 0.0
2014-Nov-17 16:31N 54°23' E 018°40'0 0.0
2014-Nov-17 15:31N 54°23' E 018°40'0 0.0
2014-Nov-17 14:31N 54°23' E 018°40'0 0.0
2014-Nov-17 13:31N 54°23' E 018°40'0 0.0
2014-Nov-17 12:31N 54°23' E 018°40'0 0.0
2014-Nov-17 11:31N 54°23' E 018°40'0 0.0
2014-Nov-17 10:31N 54°23' E 018°40'0 0.0
2014-Nov-17 09:31N 54°23' E 018°40'0 0.0
2014-Nov-17 08:31N 54°23' E 018°40'0 0.0
2014-Nov-17 07:31N 54°23' E 018°40'0 0.0
2014-Nov-17 06:31N 54°23' E 018°40'0 0.0
2014-Nov-17 05:31N 54°23' E 018°40'0 0.0
2014-Nov-17 04:31N 54°23' E 018°40'0 0.0
2014-Nov-17 03:31N 54°23' E 018°40'0 0.0
2014-Nov-17 02:31N 54°23' E 018°40'0 0.0
2014-Nov-17 01:31N 54°23' E 018°40'0 0.0
2014-Nov-17 00:31N 54°23' E 018°40'0 0.0
2014-Nov-16 23:31N 54°23' E 018°40'0 0.0
2014-Nov-16 22:31N 54°23' E 018°40'0 0.0
2014-Nov-16 21:31N 54°23' E 018°40'  
Track history (hours):
 
Tides and Currents Weather Stations Pressure Air Temp Water Temp Dewpoint Dewpoint Depression Visibility Wind Speed Wind Dir Waves Ship Positions

Moleson

Last reported at 2014-Nov-26 21:25 UTC. Time now 2014-Nov-27 08:14 UTC.
Position N 50°01' W 002°60'.

Length 181 m; draft 9.8 m.

Type: Ship. MMSI: 269039000.

Date/timePositionNaut miles runAvg speedWind from/ knotsBaromVisibWave heightAir tempDewpointWater temp
2014-Nov-26 21:25N 50°01' W 002°60'11612.9
2014-Nov-26 12:23N 50°32' W 000°04'910.3
2014-Nov-26 11:33N 50°33' E 000°09'10 9.8
2014-Nov-26 10:33N 50°35' E 000°24'1110.6
2014-Nov-26 09:33N 50°39' E 000°39'1312.5
2014-Nov-26 08:33N 50°46' E 000°56'1313.5
2014-Nov-26 07:34N 50°55' E 001°12'1313.0
2014-Nov-26 06:33N 51°04' E 001°27'1111.5
2014-Nov-26 05:33N 51°11' E 001°42'1010.2
2014-Nov-26 04:33N 51°19' E 001°51'1010.0
2014-Nov-26 03:33N 51°28' E 001°58'1010.3
2014-Nov-26 02:34N 51°36' E 002°08'1410.9
2014-Nov-26 01:19N 51°46' E 002°24'1512.5
2014-Nov-26 00:06N 51°57' E 002°40'913.2
2014-Nov-25 23:24N 52°04' E 002°50'1313.5
2014-Nov-25 22:24N 52°14' E 003°04'1213.3
2014-Nov-25 21:28N 52°24' E 003°16'1512.6
2014-Nov-25 20:18N 52°36' E 003°30'3311.3
2014-Nov-25 17:22N 53°01' E 004°06'911.2
2014-Nov-25 16:32N 53°08' E 004°17'1211.8
2014-Nov-25 15:33N 53°17' E 004°28'1212.5
2014-Nov-25 14:33N 53°29' E 004°35'3013.0
2014-Nov-25 12:15N 53°58' E 004°48'912.9
2014-Nov-25 11:33N 54°07' E 004°50'1312.4
2014-Nov-25 10:30N 54°19' E 004°57'27410.4
2014-Nov-24 08:13N 57°48' E 010°14'711.0
2014-Nov-24 07:33N 57°49' E 010°27'1211.6
2014-Nov-24 06:33N 57°48' E 010°49'1211.8
2014-Nov-24 05:33N 57°40' E 011°05'1312.5
2014-Nov-24 04:33N 57°31' E 011°22'1313.0
2014-Nov-24 03:33N 57°19' E 011°32'16911.2
2014-Nov-23 12:33N 54°31' E 011°30'1212.3
2014-Nov-23 11:34N 54°26' E 011°50'1212.0
2014-Nov-23 10:33N 54°26' E 012°10'1211.4
2014-Nov-23 09:32N 54°37' E 012°18'1111.7
2014-Nov-23 08:33N 54°43' E 012°35'2612.4
2014-Nov-23 06:27N 54°47' E 013°19'4812.2
2014-Nov-23 02:33N 54°42' E 014°41'1212.6
2014-Nov-23 01:33N 54°46' E 015°01'1312.6
2014-Nov-23 00:34N 54°50' E 015°22'1312.5
2014-Nov-22 23:33N 54°54' E 015°42'  
2014-Nov-19 20:07N 55°08' E 019°03'813.1
2014-Nov-19 19:32N 54°60' E 019°02'1313.2
2014-Nov-19 18:33N 54°47' E 019°02'1312.9
2014-Nov-19 17:33N 54°35' E 018°54'1212.5
2014-Nov-19 16:33N 54°26' E 018°39'3 3.1
2014-Nov-19 15:33N 54°23' E 018°40'0 0.5
2014-Nov-19 14:31N 54°23' E 018°40'0 0.0
2014-Nov-19 13:31N 54°23' E 018°40'0 0.0
2014-Nov-19 12:31N 54°23' E 018°40'0 0.0
2014-Nov-19 11:31N 54°23' E 018°40'0 0.0
2014-Nov-19 10:31N 54°23' E 018°40'0 0.0
2014-Nov-19 09:31N 54°23' E 018°40'0 0.0
2014-Nov-19 08:31N 54°23' E 018°40'0 0.0
2014-Nov-19 07:31N 54°23' E 018°40'0 0.0
2014-Nov-19 06:31N 54°23' E 018°40'0 0.0
2014-Nov-19 05:31N 54°23' E 018°40'0 0.0
2014-Nov-19 04:31N 54°23' E 018°40'0 0.0
2014-Nov-19 03:31N 54°23' E 018°40'0 0.0
2014-Nov-19 02:31N 54°23' E 018°40'0 0.0
2014-Nov-19 01:31N 54°23' E 018°40'0 0.0
2014-Nov-19 00:31N 54°23' E 018°40'0 0.0
2014-Nov-18 23:31N 54°23' E 018°40'0 0.0
2014-Nov-18 22:32N 54°23' E 018°40'0 0.0
2014-Nov-18 21:31N 54°23' E 018°40'0 0.0
2014-Nov-18 20:31N 54°23' E 018°40'0 0.0
2014-Nov-18 19:31N 54°23' E 018°40'0 0.0
2014-Nov-18 18:32N 54°23' E 018°40'0 0.0
2014-Nov-18 17:31N 54°23' E 018°40'0 0.0
2014-Nov-18 16:31N 54°23' E 018°40'0 0.0
2014-Nov-18 15:31N 54°23' E 018°40'0 0.0
2014-Nov-18 14:31N 54°23' E 018°40'0 0.0
2014-Nov-18 13:32N 54°23' E 018°40'0 0.0
2014-Nov-18 12:31N 54°23' E 018°40'0 0.0
2014-Nov-18 11:31N 54°23' E 018°40'0 0.0
2014-Nov-18 10:31N 54°23' E 018°40'0 0.0
2014-Nov-18 09:31N 54°23' E 018°40'0 0.0
2014-Nov-18 08:31N 54°23' E 018°40'0 0.0
2014-Nov-18 07:31N 54°23' E 018°40'0 0.0
2014-Nov-18 06:31N 54°23' E 018°40'0 0.0
2014-Nov-18 05:31N 54°23' E 018°40'0 0.0
2014-Nov-18 04:31N 54°23' E 018°40'0 0.0
2014-Nov-18 03:31N 54°23' E 018°40'0 0.0
2014-Nov-18 02:31N 54°23' E 018°40'0 0.0
2014-Nov-18 01:31N 54°23' E 018°40'0 0.0
2014-Nov-18 00:31N 54°23' E 018°40'0 0.0
2014-Nov-17 23:31N 54°23' E 018°40'0 0.0
2014-Nov-17 22:31N 54°23' E 018°40'0 0.0
2014-Nov-17 21:31N 54°23' E 018°40'0 0.0
2014-Nov-17 20:31N 54°23' E 018°40'0 0.0
2014-Nov-17 19:31N 54°23' E 018°40'0 0.0
2014-Nov-17 18:31N 54°23' E 018°40'0 0.0
2014-Nov-17 17:31N 54°23' E 018°40'0 0.0
2014-Nov-17 16:31N 54°23' E 018°40'0 0.0
2014-Nov-17 15:31N 54°23' E 018°40'0 0.0
2014-Nov-17 14:31N 54°23' E 018°40'0 0.0
2014-Nov-17 13:31N 54°23' E 018°40'0 0.0
2014-Nov-17 12:31N 54°23' E 018°40'0 0.0
2014-Nov-17 11:31N 54°23' E 018°40'0 0.0
2014-Nov-17 10:31N 54°23' E 018°40'0 0.0
2014-Nov-17 09:31N 54°23' E 018°40'0 0.0
2014-Nov-17 08:31N 54°23' E 018°40'0 0.0
2014-Nov-17 07:31N 54°23' E 018°40'0 0.0
2014-Nov-17 06:31N 54°23' E 018°40'0 0.0
2014-Nov-17 05:31N 54°23' E 018°40'0 0.0
2014-Nov-17 04:31N 54°23' E 018°40'0 0.0
2014-Nov-17 03:31N 54°23' E 018°40'0 0.0
2014-Nov-17 02:31N 54°23' E 018°40'0 0.0
2014-Nov-17 01:31N 54°23' E 018°40'0 0.0
2014-Nov-17 00:31N 54°23' E 018°40'0 0.0
2014-Nov-16 23:31N 54°23' E 018°40'0 0.0
2014-Nov-16 22:31N 54°23' E 018°40'0 0.0
2014-Nov-16 21:31N 54°23' E 018°40'  

Dump ship's entire track history